首页
METAR-TAF:

METAR-TAF

机场 :

黑角, 刚果

纬度: 04-49S, 经度: 011-54E, 海拔: 17米

当前天气观测

该预报发布于46分钟前的08:00 UTC
风速5节,风向东南,在东转东南之间变化
温度 23°C
湿度 89%
气压 1016 hPa
能見度: 8000
多云层高于800英尺
阴天层高于2000英尺

METAR: FCPP 140800Z 14005KT 110V170 8000 BKN008 OVC020 23/21 Q1016 TEMPO SCT009 OVC020

时间: 09:46 (08:46 UTC)

预报

该预报发布于3小时和46分钟前的05:00 UTC
预报有效从14日的 06点(UTC)到 15日的 06点(UTC)
风速5节,风向
能見度: 8000
散云层高于2000英尺

TAF: FCPP 140500Z 1406/1506 18005KT 8000 SCT020

超过4000个机场的气象观测和天气预报(METAR&TAF报告)。

可查询的气象台以黄色和红色小点在地图上表示。

将鼠标移到小点上方,可查看气象台名称。

然后点击查看天气观测和预报。

如需切换地图:点击带黑十字的绿色按钮放大地图;点击带横线的绿色按钮缩小地图;或者点击绿色箭头查看邻近地区的地图。


METAR-TAF: